Time;durP1;ratioP1;P1;durP2;ratioP2;P2;SDS_P1;SDS_P2;PMS_P1;PMS_P2;Temp;Humidity;BMP_temperature;BMP_pressure;BME280_temperature;BME280_humidity;BME280_pressure;Samples;Min_cycle;Max_cycle;Signal;HPM_P1;HPM_P2
2021/04/04 06:00:17;;;;;;;;;;;;;;;;;;5973402;23;1455;-69
2021/04/04 06:02:51;;;;;;;;;;;;;;;;;;4952238;29;1608;-67
2021/04/04 06:05:43;;;;;;;;;;;;;;;;;;4937940;29;861;-67
2021/04/04 06:08:18;;;;;;;;;;;;;;;;;;4936500;29;1320;-69
2021/04/04 06:10:49;;;;;;;;;;;;;;;;;;4937663;29;1295;-67
2021/04/04 06:13:27;;;;;;;;;;;;;;;;;;4936151;29;1907;-67
2021/04/04 06:15:55;;;;;;;;;;;;;;;;;;4935661;29;2017;-68
2021/04/04 06:18:38;;;;;;;;;;;;;;;;;;4949715;29;1901;-68
2021/04/04 06:21:19;;;;;;;;;;;;;;;;;;4951612;28;2007;-70
2021/04/04 06:23:51;;;;;;;;;;;;;;;;;;4955824;29;1552;-70
2021/04/04 06:26:35;;;;;;;;;;;;;;;;;;4954969;29;1786;-70
2021/04/04 06:29:07;;;;;;;;;;;;;;;;;;4951946;29;1899;-68
2021/04/04 06:31:32;;;;;;;;;;;;;;;;;;4953253;28;1666;-69
2021/04/04 06:34:16;;;;;;;;;;;;;;;;;;4940347;28;1949;-70
2021/04/04 06:37:00;;;;;;;;;;;;;;;;;;4937669;29;1829;-69
2021/04/04 06:39:44;;;;;;;;;;;;;;;;;;4955140;28;1415;-68
2021/04/04 06:42:13;;;;;;;;;;;;;;;;;;4955051;29;1754;-70
2021/04/04 06:44:51;;;;;;;;;;;;;;;;;;4955197;29;1122;-68
2021/04/04 06:47:21;;;;;;;;;;;;;;;;;;4954235;29;2090;-69
2021/04/04 06:49:50;;;;;;;;;;;;;;;;;;4954465;28;2056;-69
2021/04/04 06:52:31;;;;;;;;;;;;;;;;;;4952949;28;2059;-70
2021/04/04 06:55:02;;;;;;;;;;;;;;;;;;4956322;29;925;-68
2021/04/04 06:57:33;;;;;;;;;;;;;;;;;;4954237;28;2121;-69
2021/04/04 07:00:04;;;;;;;;;;;;;;;;;;4953303;28;2067;-68
2021/04/04 07:02:40;;;;;;;;;;;;;;;;;;4954038;29;1783;-70
2021/04/04 07:05:09;;;;;;;;;;;;;;;;;;4956106;28;971;-71
2021/04/04 07:07:53;;;;;;;;;;;;;;;;;;4954451;28;2237;-71
2021/04/04 07:10:18;;;;;;;;;;;;;;;;;;4955940;28;1327;-69
2021/04/04 07:12:44;;;;;;;;;;;;;;;;;;4947146;29;1982;-72
2021/04/04 07:15:16;;;;;;;;;;;;;;;;;;4935627;29;905;-72
2021/04/04 07:18:00;;;;;;;;;;;;;;;;;;4952547;29;2092;-72
2021/04/04 07:20:25;;;;;;;;;;;;;;;;;;4953299;29;1986;-69
2021/04/04 07:23:09;;;;;;;;;;;;;;;;;;4955002;28;1889;-69
2021/04/04 07:25:41;;;;;;;;;;;;;;;;;;4956111;28;896;-68
2021/04/04 07:28:10;;;;;;;;;;;;;;;;;;4958248;28;1715;-69
2021/04/04 07:30:44;;;;;;;;;;;;;;;;;;4958249;28;1331;-71
2021/04/04 07:33:09;;;;;;;;;;;;;;;;;;4955701;29;2220;-70
2021/04/04 07:35:54;;;;;;;;;;;;;;;;;;4959548;29;896;-66
2021/04/04 07:38:31;;;;;;;;;;;;;;;;;;4956931;29;1875;-68
2021/04/04 07:41:08;;;;;;;;;;;;;;;;;;4959301;28;1327;-66
2021/04/04 07:43:47;;;;;;;;;;;;;;;;;;4957578;29;2037;-67
2021/04/04 07:46:30;;;;;;;;;;;;;;;;;;4958192;29;1903;-65
2021/04/04 07:48:55;;;;;;;;;;;;;;;;;;4940253;29;863;-65
2021/04/04 07:51:22;;;;;;;;;;;;;;;;;;4945017;29;1981;-66
2021/04/04 07:53:54;;;;;;;;;;;;;;;;;;4957600;28;2410;-65
2021/04/04 07:56:24;;;;;;;;;;;;;;;;;;4956323;29;2093;-65
2021/04/04 07:58:57;;;;;;;;;;;;;;;;;;4959476;28;825;-67
2021/04/04 08:01:28;;;;;;;;;;;;;;;;;;4957049;28;1965;-67
2021/04/04 08:04:32;;;;;;;;;;;;;;;;;;4958782;28;971;-69
2021/04/04 08:07:05;;;;;;;;;;;;;;;;;;4932202;29;2161;-68
2021/04/04 08:09:36;;;;;;;;;;;;;;;;;;4903246;29;933;-68
2021/04/04 08:12:10;;;;;;;;;;;;;;;;;;4926777;29;1971;-65
2021/04/04 08:14:37;;;;;;;;;;;;;;;;;;4957242;28;1898;-65
2021/04/04 08:17:03;;;;;;;;;;;;;;;;;;4956436;28;1896;-65
2021/04/04 08:19:29;;;;;;;;;;;;;;;;;;4941153;29;2293;-65
2021/04/04 08:22:01;;;;;;;;;;;;;;;;;;4958105;28;2101;-66
2021/04/04 08:24:38;;;;;;;;;;;;;;;;;;4958589;28;923;-65
2021/04/04 08:27:03;;;;;;;;;;;;;;;;;;4956105;28;2079;-66
2021/04/04 08:29:32;;;;;;;;;;;;;;;;;;4958564;28;798;-65
2021/04/04 08:32:02;;;;;;;;;;;;;;;;;;4952593;28;2218;-65
2021/04/04 08:34:30;;;;;;;;;;;;;;;;;;4957700;28;1886;-65
2021/04/04 08:36:57;;;;;;;;;;;;;;;;;;4957047;28;1994;-66
2021/04/04 08:39:24;;;;;;;;;;;;;;;;;;4958180;28;834;-64
2021/04/04 08:41:49;;;;;;;;;;;;;;;;;;4940357;29;1772;-67
2021/04/04 08:44:37;;;;;;;;;;;;;;;;;;4956787;29;830;-65
2021/04/04 08:47:09;;;;;;;;;;;;;;;;;;4956247;28;2047;-68
2021/04/04 08:49:36;;;;;;;;;;;;;;;;;;4950548;28;2069;-68
2021/04/04 08:52:03;;;;;;;;;;;;;;;;;;4938995;29;1330;-68
2021/04/04 08:54:29;;;;;;;;;;;;;;;;;;4941705;29;2142;-68
2021/04/04 08:56:56;;;;;;;;;;;;;;;;;;4955929;29;1768;-67
2021/04/04 08:59:23;;;;;;;;;;;;;;;;;;4957835;29;2063;-67
2021/04/04 09:01:51;;;;;;;;;;;;;;;;;;4956263;28;1735;-67
2021/04/04 09:04:18;;;;;;;;;;;;;;;;;;4955651;28;1754;-69
2021/04/04 09:06:44;;;;;;;;;;;;;;;;;;4955975;28;1994;-68
2021/04/04 09:09:18;;;;;;;;;;;;;;;;;;4956820;29;1695;-69
2021/04/04 09:11:45;;;;;;;;;;;;;;;;;;4957566;28;1707;-67
2021/04/04 09:14:12;;;;;;;;;;;;;;;;;;4944984;29;1898;-67
2021/04/04 09:16:37;;;;;;;;;;;;;;;;;;4947814;29;1797;-69
2021/04/04 09:19:02;;;;;;;;;;;;;;;;;;4949408;29;1987;-70
2021/04/04 09:21:34;;;;;;;;;;;;;;;;;;4948639;29;1678;-70
2021/04/04 09:24:00;;;;;;;;;;;;;;;;;;4951662;29;1962;-70
2021/04/04 09:26:27;;;;;;;;;;;;;;;;;;4941468;29;1756;-69
2021/04/04 09:28:53;;;;;;;;;;;;;;;;;;4923561;29;1501;-70
2021/04/04 09:31:29;;;;;;;;;;;;;;;;;;4937132;29;1850;-69
2021/04/04 09:34:02;;;;;;;;;;;;;;;;;;4936417;29;1965;-70
2021/04/04 09:36:44;;;;;;;;;;;;;;;;;;4948506;29;1804;-70
2021/04/04 09:39:10;;;;;;;;;;;;;;;;;;4951341;29;1793;-69
2021/04/04 09:41:36;;;;;;;;;;;;;;;;;;4946628;29;1508;-70
2021/04/04 09:44:06;;;;;;;;;;;;;;;;;;4952714;28;1601;-69
2021/04/04 09:46:31;;;;;;;;;;;;;;;;;;4951261;29;1696;-72
2021/04/04 09:48:56;;;;;;;;;;;;;;;;;;4940010;29;1870;-72
2021/04/04 09:51:22;;;;;;;;;;;;;;;;;;4954963;28;1612;-71
2021/04/04 09:53:49;;;;;;;;;;;;;;;;;;4956439;29;1895;-71
2021/04/04 09:56:15;;;;;;;;;;;;;;;;;;4952961;29;1606;-69
2021/04/04 09:58:47;;;;;;;;;;;;;;;;;;4944220;29;1638;-70
2021/04/04 10:01:28;;;;;;;;;;;;;;;;;;4939359;29;1810;-69
2021/04/04 10:04:11;;;;;;;;;;;;;;;;;;4941615;28;2404;-67
2021/04/04 10:06:36;;;;;;;;;;;;;;;;;;4948188;29;1838;-68
2021/04/04 10:09:03;;;;;;;;;;;;;;;;;;4956788;29;775;-68
2021/04/04 10:11:29;;;;;;;;;;;;;;;;;;4956641;28;1358;-68
2021/04/04 10:14:08;;;;;;;;;;;;;;;;;;4946186;29;1894;-69
2021/04/04 10:16:33;;;;;;;;;;;;;;;;;;4947683;29;1806;-68
2021/04/04 10:18:59;;;;;;;;;;;;;;;;;;4943633;29;1680;-68
2021/04/04 10:21:25;;;;;;;;;;;;;;;;;;4954336;28;1839;-68
2021/04/04 10:23:50;;;;;;;;;;;;;;;;;;4955886;29;952;-68
2021/04/04 10:26:18;;;;;;;;;;;;;;;;;;4956440;29;1638;-68
2021/04/04 10:28:45;;;;;;;;;;;;;;;;;;4956424;28;909;-68
2021/04/04 10:31:11;;;;;;;;;;;;;;;;;;4956461;28;1318;-69
2021/04/04 10:33:37;;;;;;;;;;;;;;;;;;4954500;28;1947;-67
2021/04/04 10:36:15;;;;;;;;;;;;;;;;;;4953983;28;1758;-69
2021/04/04 10:38:41;;;;;;;;;;;;;;;;;;4950323;28;1584;-68
2021/04/04 10:41:06;;;;;;;;;;;;;;;;;;4950209;29;1671;-68
2021/04/04 10:43:42;;;;;;;;;;;;;;;;;;4953409;29;1542;-68
2021/04/04 10:46:12;;;;;;;;;;;;;;;;;;4955872;28;1559;-69
2021/04/04 10:48:41;;;;;;;;;;;;;;;;;;4946049;29;1707;-69
2021/04/04 10:51:08;;;;;;;;;;;;;;;;;;4936570;29;1814;-69
2021/04/04 10:53:33;;;;;;;;;;;;;;;;;;4942885;29;1970;-67
2021/04/04 10:55:59;;;;;;;;;;;;;;;;;;4942996;29;2049;-67
2021/04/04 10:58:28;;;;;;;;;;;;;;;;;;4936555;29;2071;-66
2021/04/04 11:00:55;;;;;;;;;;;;;;;;;;4948996;28;2009;-67
2021/04/04 11:03:21;;;;;;;;;;;;;;;;;;4947455;28;2053;-68
2021/04/04 11:05:47;;;;;;;;;;;;;;;;;;4948122;29;1687;-68
2021/04/04 11:08:12;;;;;;;;;;;;;;;;;;4952498;29;2015;-68
2021/04/04 11:10:37;;;;;;;;;;;;;;;;;;4950338;29;2332;-68
2021/04/04 11:13:04;;;;;;;;;;;;;;;;;;4945402;29;1906;-68
2021/04/04 11:15:30;;;;;;;;;;;;;;;;;;4950946;29;1802;-67
2021/04/04 11:17:56;;;;;;;;;;;;;;;;;;4957231;29;1692;-68
2021/04/04 11:20:22;;;;;;;;;;;;;;;;;;4954716;29;1712;-67
2021/04/04 11:22:48;;;;;;;;;;;;;;;;;;4947847;29;2003;-67
2021/04/04 11:25:15;;;;;;;;;;;;;;;;;;4939880;29;1529;-68
2021/04/04 11:27:42;;;;;;;;;;;;;;;;;;4946899;29;1618;-68
2021/04/04 11:30:15;;;;;;;;;;;;;;;;;;4947564;28;1620;-68
2021/04/04 11:32:45;;;;;;;;;;;;;;;;;;4948981;28;1898;-67
2021/04/04 11:35:10;;;;;;;;;;;;;;;;;;4955821;29;1758;-69
2021/04/04 11:37:40;;;;;;;;;;;;;;;;;;4956257;28;1620;-67
2021/04/04 11:40:11;;;;;;;;;;;;;;;;;;4945645;29;1736;-68
2021/04/04 11:42:36;;;;;;;;;;;;;;;;;;4950421;29;1570;-67
2021/04/04 11:45:02;;;;;;;;;;;;;;;;;;4958567;29;880;-68
2021/04/04 11:47:28;;;;;;;;;;;;;;;;;;4957671;29;1819;-68
2021/04/04 11:49:54;;;;;;;;;;;;;;;;;;4945316;29;1669;-69
2021/04/04 11:52:21;;;;;;;;;;;;;;;;;;4958992;28;1695;-70
2021/04/04 11:57:18;;;;;;;;;;;;;;;;;;4959074;29;801;-68
2021/04/04 11:59:43;;;;;;;;;;;;;;;;;;4950990;29;2005;-68
2021/04/04 12:02:10;;;;;;;;;;;;;;;;;;4957032;28;1801;-69
2021/04/04 12:04:49;;;;;;;;;;;;;;;;;;4958054;29;1673;-68
2021/04/04 12:07:15;;;;;;;;;;;;;;;;;;4957319;28;1961;-68
2021/04/04 12:09:44;;;;;;;;;;;;;;;;;;4957380;28;1218;-68
2021/04/04 12:12:10;;;;;;;;;;;;;;;;;;4950846;28;1872;-68
2021/04/04 12:15:05;;;;;;;;;;;;;;;;;;4956937;28;2205;-70
2021/04/04 12:17:31;;;;;;;;;;;;;;;;;;4944813;29;2006;-69
2021/04/04 12:19:57;;;;;;;;;;;;;;;;;;4958518;29;1449;-68
2021/04/04 12:22:34;;;;;;;;;;;;;;;;;;4958429;28;1791;-67
2021/04/04 12:24:59;;;;;;;;;;;;;;;;;;4956690;29;1452;-68
2021/04/04 12:27:26;;;;;;;;;;;;;;;;;;4957369;29;1526;-67
2021/04/04 12:29:55;;;;;;;;;;;;;;;;;;4958615;28;825;-67
2021/04/04 12:32:23;;;;;;;;;;;;;;;;;;4958321;28;1832;-69
2021/04/04 12:34:50;;;;;;;;;;;;;;;;;;4956485;29;1963;-68
2021/04/04 12:37:19;;;;;;;;;;;;;;;;;;4957456;29;1766;-69
2021/04/04 12:39:45;;;;;;;;;;;;;;;;;;4958315;28;903;-69
2021/04/04 12:42:14;;;;;;;;;;;;;;;;;;4957097;28;2048;-69
2021/04/04 12:44:41;;;;;;;;;;;;;;;;;;4956686;28;2182;-69
2021/04/04 12:47:07;;;;;;;;;;;;;;;;;;4956261;29;1629;-68
2021/04/04 12:49:32;;;;;;;;;;;;;;;;;;4948160;28;1711;-69
2021/04/04 12:51:58;;;;;;;;;;;;;;;;;;4951093;28;1990;-68
2021/04/04 12:54:24;;;;;;;;;;;;;;;;;;4938082;29;1899;-68
2021/04/04 12:56:50;;;;;;;;;;;;;;;;;;4951181;29;1678;-69
2021/04/04 12:59:15;;;;;;;;;;;;;;;;;;4957864;28;1801;-69
2021/04/04 13:01:44;;;;;;;;;;;;;;;;;;4957852;28;1982;-68
2021/04/04 13:04:15;;;;;;;;;;;;;;;;;;4941129;28;1754;-68
2021/04/04 13:06:41;;;;;;;;;;;;;;;;;;4956731;28;1206;-67
2021/04/04 13:09:06;;;;;;;;;;;;;;;;;;4955761;28;1687;-67
2021/04/04 13:11:31;;;;;;;;;;;;;;;;;;4955106;28;1750;-66
2021/04/04 13:13:56;;;;;;;;;;;;;;;;;;4951933;28;2229;-67
2021/04/04 13:16:24;;;;;;;;;;;;;;;;;;4949876;29;1978;-66
2021/04/04 13:18:52;;;;;;;;;;;;;;;;;;4942476;29;2006;-66
2021/04/04 13:21:22;;;;;;;;;;;;;;;;;;4950017;28;1812;-67
2021/04/04 13:23:51;;;;;;;;;;;;;;;;;;4945124;28;1728;-67
2021/04/04 13:26:19;;;;;;;;;;;;;;;;;;4950781;29;1791;-66
2021/04/04 13:28:54;;;;;;;;;;;;;;;;;;4957171;29;1584;-68
2021/04/04 13:31:22;;;;;;;;;;;;;;;;;;4938350;29;1315;-67
2021/04/04 13:34:03;;;;;;;;;;;;;;;;;;4954798;29;2104;-68
2021/04/04 13:36:28;;;;;;;;;;;;;;;;;;4936867;29;1212;-68
2021/04/04 13:38:53;;;;;;;;;;;;;;;;;;4949046;29;1954;-69
2021/04/04 13:41:19;;;;;;;;;;;;;;;;;;4957062;28;2001;-69
2021/04/04 13:43:46;;;;;;;;;;;;;;;;;;4956133;28;2017;-67
2021/04/04 13:46:12;;;;;;;;;;;;;;;;;;4955848;28;1777;-69
2021/04/04 13:48:38;;;;;;;;;;;;;;;;;;4955297;29;1699;-69
2021/04/04 13:51:03;;;;;;;;;;;;;;;;;;4948622;28;1710;-69
2021/04/04 13:53:28;;;;;;;;;;;;;;;;;;4952973;29;1891;-69
2021/04/04 13:55:55;;;;;;;;;;;;;;;;;;4956008;28;2240;-69
2021/04/04 13:58:47;;;;;;;;;;;;;;;;;;4944781;28;1697;-68
2021/04/04 14:01:26;;;;;;;;;;;;;;;;;;4937098;29;1713;-69
2021/04/04 14:03:52;;;;;;;;;;;;;;;;;;4954185;29;1795;-69
2021/04/04 14:06:18;;;;;;;;;;;;;;;;;;4953872;28;1790;-68
2021/04/04 14:08:43;;;;;;;;;;;;;;;;;;4949116;29;1583;-69
2021/04/04 14:11:14;;;;;;;;;;;;;;;;;;4947987;29;1709;-68
2021/04/04 14:13:39;;;;;;;;;;;;;;;;;;4952683;29;1906;-69
2021/04/04 14:16:05;;;;;;;;;;;;;;;;;;4941848;29;1659;-69
2021/04/04 14:18:32;;;;;;;;;;;;;;;;;;4943838;29;1896;-69
2021/04/04 14:20:57;;;;;;;;;;;;;;;;;;4952873;28;1666;-68
2021/04/04 14:23:22;;;;;;;;;;;;;;;;;;4948356;29;1606;-69
2021/04/04 14:25:48;;;;;;;;;;;;;;;;;;4954855;29;1763;-69
2021/04/04 14:28:13;;;;;;;;;;;;;;;;;;4955235;29;1677;-68
2021/04/04 14:30:38;;;;;;;;;;;;;;;;;;4952303;28;2015;-68
2021/04/04 14:33:04;;;;;;;;;;;;;;;;;;4947152;29;1984;-70
2021/04/04 14:35:29;;;;;;;;;;;;;;;;;;4948675;29;1513;-69
2021/04/04 14:37:54;;;;;;;;;;;;;;;;;;4947531;28;2091;-69
2021/04/04 14:40:20;;;;;;;;;;;;;;;;;;4948366;29;1918;-69
2021/04/04 14:42:46;;;;;;;;;;;;;;;;;;4946093;29;1864;-70
2021/04/04 14:45:11;;;;;;;;;;;;;;;;;;4941298;28;1704;-69
2021/04/04 14:47:37;;;;;;;;;;;;;;;;;;4948752;29;1975;-69
2021/04/04 14:50:02;;;;;;;;;;;;;;;;;;4953253;28;1752;-68
2021/04/04 14:52:27;;;;;;;;;;;;;;;;;;4955255;28;1696;-69
2021/04/04 14:54:53;;;;;;;;;;;;;;;;;;4951424;28;1964;-70
2021/04/04 14:57:18;;;;;;;;;;;;;;;;;;4946666;29;1905;-71
2021/04/04 14:59:43;;;;;;;;;;;;;;;;;;4950207;28;1658;-71
2021/04/04 15:02:22;;;;;;;;;;;;;;;;;;4949584;28;1922;-71
2021/04/04 15:04:48;;;;;;;;;;;;;;;;;;4952890;29;2188;-72
2021/04/04 15:07:13;;;;;;;;;;;;;;;;;;4953322;28;2119;-72
2021/04/04 15:09:38;;;;;;;;;;;;;;;;;;4955669;29;1774;-70
2021/04/04 15:12:04;;;;;;;;;;;;;;;;;;4947612;29;1847;-69
2021/04/04 15:14:29;;;;;;;;;;;;;;;;;;4950117;28;1962;-69
2021/04/04 15:16:54;;;;;;;;;;;;;;;;;;4944394;29;1842;-69
2021/04/04 15:19:19;;;;;;;;;;;;;;;;;;4952541;29;1749;-70
2021/04/04 15:21:45;;;;;;;;;;;;;;;;;;4954766;28;2026;-70
2021/04/04 15:24:10;;;;;;;;;;;;;;;;;;4947900;28;1843;-70
2021/04/04 15:26:35;;;;;;;;;;;;;;;;;;4949506;29;1728;-73
2021/04/04 15:29:01;;;;;;;;;;;;;;;;;;4955180;28;1786;-71
2021/04/04 15:31:26;;;;;;;;;;;;;;;;;;4954799;28;1896;-72
2021/04/04 15:33:54;;;;;;;;;;;;;;;;;;4954226;29;1977;-70
2021/04/04 15:36:20;;;;;;;;;;;;;;;;;;4950025;28;1855;-69
2021/04/04 15:38:45;;;;;;;;;;;;;;;;;;4952242;29;1680;-69
2021/04/04 15:41:10;;;;;;;;;;;;;;;;;;4952364;28;1658;-70
2021/04/04 15:43:36;;;;;;;;;;;;;;;;;;4943476;28;1771;-69
2021/04/04 15:46:01;;;;;;;;;;;;;;;;;;4949436;29;1798;-69
2021/04/04 15:48:26;;;;;;;;;;;;;;;;;;4944633;28;1681;-70
2021/04/04 15:50:51;;;;;;;;;;;;;;;;;;4950451;28;1699;-70
2021/04/04 15:53:17;;;;;;;;;;;;;;;;;;4955280;28;1899;-70
2021/04/04 15:55:45;;;;;;;;;;;;;;;;;;4952908;29;1963;-71
2021/04/04 15:58:10;;;;;;;;;;;;;;;;;;4956659;29;1917;-71
2021/04/04 16:00:36;;;;;;;;;;;;;;;;;;4958113;28;1802;-72
2021/04/04 16:03:01;;;;;;;;;;;;;;;;;;4954947;29;1900;-70
2021/04/04 16:05:27;;;;;;;;;;;;;;;;;;4951391;28;1844;-68
2021/04/04 16:07:52;;;;;;;;;;;;;;;;;;4951197;28;1951;-70
2021/04/04 16:12:54;;;;;;;;;;;;;;;;;;4952372;28;1969;-69
2021/04/04 16:15:20;;;;;;;;;;;;;;;;;;4952674;29;1794;-70
2021/04/04 16:17:46;;;;;;;;;;;;;;;;;;4948685;29;1816;-70
2021/04/04 16:20:12;;;;;;;;;;;;;;;;;;4952506;28;1795;-70
2021/04/04 16:22:37;;;;;;;;;;;;;;;;;;4947408;29;1686;-70
2021/04/04 16:25:03;;;;;;;;;;;;;;;;;;4944314;29;1836;-70
2021/04/04 16:27:29;;;;;;;;;;;;;;;;;;4948276;29;1650;-69
2021/04/04 16:29:54;;;;;;;;;;;;;;;;;;4947097;29;1938;-69
2021/04/04 16:32:19;;;;;;;;;;;;;;;;;;4954785;29;1971;-70
2021/04/04 16:34:44;;;;;;;;;;;;;;;;;;4951922;28;1898;-69
2021/04/04 16:37:09;;;;;;;;;;;;;;;;;;4939247;29;1983;-69
2021/04/04 16:39:35;;;;;;;;;;;;;;;;;;4947350;29;1749;-69
2021/04/04 16:42:00;;;;;;;;;;;;;;;;;;4950123;28;1849;-69
2021/04/04 16:44:25;;;;;;;;;;;;;;;;;;4954374;28;1765;-69
2021/04/04 16:46:50;;;;;;;;;;;;;;;;;;4956991;29;1404;-69
2021/04/04 16:49:16;;;;;;;;;;;;;;;;;;4958205;29;884;-69
2021/04/04 16:51:41;;;;;;;;;;;;;;;;;;4958263;28;1327;-69
2021/04/04 16:54:08;;;;;;;;;;;;;;;;;;4956492;29;1953;-69
2021/04/04 16:56:34;;;;;;;;;;;;;;;;;;4958462;29;871;-70
2021/04/04 16:58:59;;;;;;;;;;;;;;;;;;4958004;28;877;-70
2021/04/04 17:01:25;;;;;;;;;;;;;;;;;;4956560;28;1342;-70
2021/04/04 17:03:50;;;;;;;;;;;;;;;;;;4957951;29;878;-70
2021/04/04 17:06:15;;;;;;;;;;;;;;;;;;4956562;28;1233;-70
2021/04/04 17:08:40;;;;;;;;;;;;;;;;;;4957816;29;810;-70
2021/04/04 17:11:06;;;;;;;;;;;;;;;;;;4955998;28;1382;-70
2021/04/04 17:13:31;;;;;;;;;;;;;;;;;;4957038;29;1883;-71
2021/04/04 17:15:57;;;;;;;;;;;;;;;;;;4957041;29;938;-70
2021/04/04 17:18:22;;;;;;;;;;;;;;;;;;4957241;29;912;-70
2021/04/04 17:20:47;;;;;;;;;;;;;;;;;;4957303;28;1346;-69
2021/04/04 17:23:13;;;;;;;;;;;;;;;;;;4956991;29;921;-69
2021/04/04 17:25:39;;;;;;;;;;;;;;;;;;4956939;29;929;-70
2021/04/04 17:28:05;;;;;;;;;;;;;;;;;;4955540;29;1321;-70
2021/04/04 17:30:30;;;;;;;;;;;;;;;;;;4956867;28;1315;-70
2021/04/04 17:32:55;;;;;;;;;;;;;;;;;;4955627;29;1898;-70
2021/04/04 17:35:22;;;;;;;;;;;;;;;;;;4956849;29;873;-70
2021/04/04 17:37:47;;;;;;;;;;;;;;;;;;4956810;29;885;-71
2021/04/04 17:40:13;;;;;;;;;;;;;;;;;;4955533;28;1307;-72
2021/04/04 17:42:38;;;;;;;;;;;;;;;;;;4955430;29;842;-69
2021/04/04 17:45:04;;;;;;;;;;;;;;;;;;4955278;28;1203;-68
2021/04/04 17:47:31;;;;;;;;;;;;;;;;;;4956328;29;1212;-71
2021/04/04 17:49:57;;;;;;;;;;;;;;;;;;4955423;29;1404;-70
2021/04/04 17:52:23;;;;;;;;;;;;;;;;;;4956849;29;1327;-69
2021/04/04 17:54:48;;;;;;;;;;;;;;;;;;4954833;28;1899;-71
2021/04/04 17:57:13;;;;;;;;;;;;;;;;;;4955232;29;1217;-69
2021/04/04 17:59:38;;;;;;;;;;;;;;;;;;4956350;29;965;-70
2021/04/04 18:02:04;;;;;;;;;;;;;;;;;;4955002;28;1353;-70
2021/04/04 18:04:30;;;;;;;;;;;;;;;;;;4956165;28;759;-71
2021/04/04 18:07:14;;;;;;;;;;;;;;;;;;4954903;28;1231;-71
2021/04/04 18:12:11;;;;;;;;;;;;;;;;;;4955448;28;1442;-68
2021/04/04 18:14:36;;;;;;;;;;;;;;;;;;4954867;29;1902;-70
2021/04/04 18:17:01;;;;;;;;;;;;;;;;;;4956149;29;881;-69
2021/04/04 18:19:27;;;;;;;;;;;;;;;;;;4954734;29;1229;-69
2021/04/04 18:21:52;;;;;;;;;;;;;;;;;;4955970;29;1322;-70
2021/04/04 18:24:18;;;;;;;;;;;;;;;;;;4955965;28;810;-69
2021/04/04 18:26:44;;;;;;;;;;;;;;;;;;4955975;28;858;-69
2021/04/04 18:29:09;;;;;;;;;;;;;;;;;;4954169;28;1228;-69
2021/04/04 18:31:35;;;;;;;;;;;;;;;;;;4954458;29;1356;-69
2021/04/04 18:34:00;;;;;;;;;;;;;;;;;;4955621;28;1890;-70
2021/04/04 18:36:25;;;;;;;;;;;;;;;;;;4955828;29;917;-69
2021/04/04 18:38:50;;;;;;;;;;;;;;;;;;4954410;29;1720;-69
2021/04/04 18:41:16;;;;;;;;;;;;;;;;;;4954462;29;1290;-70
2021/04/04 18:43:41;;;;;;;;;;;;;;;;;;4954122;28;1330;-68
2021/04/04 18:46:07;;;;;;;;;;;;;;;;;;4954584;28;1433;-69
2021/04/04 18:48:32;;;;;;;;;;;;;;;;;;4954382;29;1308;-69
2021/04/04 18:50:57;;;;;;;;;;;;;;;;;;4954234;28;1330;-69
2021/04/04 18:53:23;;;;;;;;;;;;;;;;;;4954250;29;1883;-68
2021/04/04 18:55:48;;;;;;;;;;;;;;;;;;4955715;28;806;-69
2021/04/04 18:58:13;;;;;;;;;;;;;;;;;;4955948;29;881;-69
2021/04/04 19:00:39;;;;;;;;;;;;;;;;;;4954307;28;1394;-69
2021/04/04 19:03:05;;;;;;;;;;;;;;;;;;4955528;28;826;-71
2021/04/04 19:05:30;;;;;;;;;;;;;;;;;;4955750;29;856;-70
2021/04/04 19:07:56;;;;;;;;;;;;;;;;;;4954768;29;913;-70
2021/04/04 19:10:24;;;;;;;;;;;;;;;;;;4955516;28;1327;-70
2021/04/04 19:12:49;;;;;;;;;;;;;;;;;;4955771;28;1890;-71
2021/04/04 19:15:15;;;;;;;;;;;;;;;;;;4954204;28;850;-70
2021/04/04 19:17:41;;;;;;;;;;;;;;;;;;4955522;29;1147;-70
2021/04/04 19:20:08;;;;;;;;;;;;;;;;;;4955627;29;1283;-70
2021/04/04 19:22:33;;;;;;;;;;;;;;;;;;4954945;28;1292;-70
2021/04/04 19:24:58;;;;;;;;;;;;;;;;;;4958970;29;896;-70
2021/04/04 19:27:23;;;;;;;;;;;;;;;;;;4957747;29;1333;-71
2021/04/04 19:29:49;;;;;;;;;;;;;;;;;;4957898;29;1213;-70
2021/04/04 19:32:15;;;;;;;;;;;;;;;;;;4959147;29;1283;-70
2021/04/04 19:34:41;;;;;;;;;;;;;;;;;;4957356;28;1953;-69
2021/04/04 19:37:06;;;;;;;;;;;;;;;;;;4959212;29;964;-70
2021/04/04 19:39:31;;;;;;;;;;;;;;;;;;4941692;29;1317;-70
2021/04/04 19:41:57;;;;;;;;;;;;;;;;;;4957532;28;1547;-70
2021/04/04 19:44:23;;;;;;;;;;;;;;;;;;4957522;29;1305;-69
2021/04/04 19:46:51;;;;;;;;;;;;;;;;;;4958615;29;826;-70
2021/04/04 19:49:17;;;;;;;;;;;;;;;;;;4958960;28;960;-69
2021/04/04 19:51:42;;;;;;;;;;;;;;;;;;4958723;29;1299;-69
2021/04/04 19:54:08;;;;;;;;;;;;;;;;;;4958295;29;1955;-69
2021/04/04 19:56:33;;;;;;;;;;;;;;;;;;4957272;29;1480;-69
2021/04/04 19:58:58;;;;;;;;;;;;;;;;;;4958817;28;821;-69
2021/04/04 20:01:24;;;;;;;;;;;;;;;;;;4958478;29;1433;-68
2021/04/04 20:03:49;;;;;;;;;;;;;;;;;;4958497;29;802;-69
2021/04/04 20:06:15;;;;;;;;;;;;;;;;;;4958680;29;921;-68
2021/04/04 20:08:40;;;;;;;;;;;;;;;;;;4958430;29;869;-69
2021/04/04 20:11:06;;;;;;;;;;;;;;;;;;4956956;28;1370;-69
2021/04/04 20:13:31;;;;;;;;;;;;;;;;;;4958241;29;1952;-70
2021/04/04 20:15:56;;;;;;;;;;;;;;;;;;4957185;28;1308;-69
2021/04/04 20:18:21;;;;;;;;;;;;;;;;;;4958301;29;880;-69
2021/04/04 20:20:50;;;;;;;;;;;;;;;;;;4958387;29;1331;-70
2021/04/04 20:23:15;;;;;;;;;;;;;;;;;;4957985;29;905;-68
2021/04/04 20:25:40;;;;;;;;;;;;;;;;;;4958208;29;937;-70
2021/04/04 20:28:07;;;;;;;;;;;;;;;;;;4956903;28;1244;-71
2021/04/04 20:30:33;;;;;;;;;;;;;;;;;;4958180;28;1386;-71
2021/04/04 20:32:59;;;;;;;;;;;;;;;;;;4957822;29;1947;-71
2021/04/04 20:35:48;;;;;;;;;;;;;;;;;;4955820;28;814;-71
2021/04/04 20:38:10;;;;;;;;;;;;;;;;;;4957549;29;1349;-70
2021/04/04 20:40:36;;;;;;;;;;;;;;;;;;4958009;29;1331;-70
2021/04/04 20:43:02;;;;;;;;;;;;;;;;;;4956423;29;1201;-69
2021/04/04 20:45:28;;;;;;;;;;;;;;;;;;4957737;28;865;-70
2021/04/04 20:47:54;;;;;;;;;;;;;;;;;;4956358;28;1228;-70
2021/04/04 20:50:20;;;;;;;;;;;;;;;;;;4956452;28;1291;-69
2021/04/04 20:52:45;;;;;;;;;;;;;;;;;;4956318;29;1362;-71
2021/04/04 20:55:12;;;;;;;;;;;;;;;;;;4957371;29;1946;-69
2021/04/04 20:57:37;;;;;;;;;;;;;;;;;;4956187;28;1237;-72
2021/04/04 21:00:04;;;;;;;;;;;;;;;;;;4956356;28;1213;-71
2021/04/04 21:02:29;;;;;;;;;;;;;;;;;;4957474;29;967;-70
2021/04/04 21:04:54;;;;;;;;;;;;;;;;;;4956215;29;897;-70
2021/04/04 21:07:20;;;;;;;;;;;;;;;;;;4957560;29;779;-72
2021/04/04 21:09:45;;;;;;;;;;;;;;;;;;4955765;28;1371;-71
2021/04/04 21:12:10;;;;;;;;;;;;;;;;;;4957358;28;1410;-71
2021/04/04 21:14:36;;;;;;;;;;;;;;;;;;4955695;29;1902;-71
2021/04/04 21:17:01;;;;;;;;;;;;;;;;;;4955948;28;1425;-71
2021/04/04 21:19:26;;;;;;;;;;;;;;;;;;4956973;29;873;-71
2021/04/04 21:21:51;;;;;;;;;;;;;;;;;;4957156;29;1275;-71
2021/04/04 21:24:17;;;;;;;;;;;;;;;;;;4955723;29;1208;-71
2021/04/04 21:26:43;;;;;;;;;;;;;;;;;;4957335;28;905;-70
2021/04/04 21:29:08;;;;;;;;;;;;;;;;;;4957114;29;837;-69
2021/04/04 21:31:33;;;;;;;;;;;;;;;;;;4955698;29;1663;-70
2021/04/04 21:33:59;;;;;;;;;;;;;;;;;;4956587;29;1890;-68
2021/04/04 21:36:24;;;;;;;;;;;;;;;;;;4956995;28;878;-68
2021/04/04 21:38:49;;;;;;;;;;;;;;;;;;4956942;28;913;-70
2021/04/04 21:41:14;;;;;;;;;;;;;;;;;;4955318;28;1370;-68
2021/04/04 21:43:40;;;;;;;;;;;;;;;;;;4955326;29;1372;-69
2021/04/04 21:46:05;;;;;;;;;;;;;;;;;;4956674;28;936;-68
2021/04/04 21:48:30;;;;;;;;;;;;;;;;;;4956868;29;1103;-70
2021/04/04 21:50:56;;;;;;;;;;;;;;;;;;4955358;29;1322;-68
2021/04/04 21:53:21;;;;;;;;;;;;;;;;;;4955366;29;1942;-71
2021/04/04 21:55:48;;;;;;;;;;;;;;;;;;4956630;29;826;-70
2021/04/04 21:58:13;;;;;;;;;;;;;;;;;;4956743;28;877;-69
2021/04/04 22:00:39;;;;;;;;;;;;;;;;;;4955044;29;1409;-69
2021/04/04 22:03:04;;;;;;;;;;;;;;;;;;4954913;29;1237;-69
2021/04/04 22:05:29;;;;;;;;;;;;;;;;;;4955292;29;1130;-68
2021/04/04 22:07:54;;;;;;;;;;;;;;;;;;4955145;29;1197;-70
2021/04/04 22:10:21;;;;;;;;;;;;;;;;;;4954706;29;1291;-68
2021/04/04 22:12:49;;;;;;;;;;;;;;;;;;4956329;28;854;-71
2021/04/04 22:15:16;;;;;;;;;;;;;;;;;;4955975;28;1891;-70
2021/04/04 22:17:42;;;;;;;;;;;;;;;;;;4956379;28;826;-68
2021/04/04 22:20:17;;;;;;;;;;;;;;;;;;4954620;29;1386;-69
2021/04/04 22:22:43;;;;;;;;;;;;;;;;;;4956234;29;900;-69
2021/04/04 22:25:09;;;;;;;;;;;;;;;;;;4954526;29;1136;-69
2021/04/04 22:27:34;;;;;;;;;;;;;;;;;;4956137;29;896;-70
2021/04/04 22:29:59;;;;;;;;;;;;;;;;;;4954773;29;1326;-70
2021/04/04 22:32:25;;;;;;;;;;;;;;;;;;4955818;28;1322;-68
2021/04/04 22:34:50;;;;;;;;;;;;;;;;;;4955805;29;1958;-69
2021/04/04 22:37:16;;;;;;;;;;;;;;;;;;4956394;29;1059;-69
2021/04/04 22:39:41;;;;;;;;;;;;;;;;;;4955984;29;897;-69
2021/04/04 22:42:07;;;;;;;;;;;;;;;;;;4955903;28;1307;-70
2021/04/04 22:44:33;;;;;;;;;;;;;;;;;;4955481;29;1019;-68
2021/04/04 22:46:58;;;;;;;;;;;;;;;;;;4954573;29;1514;-70
2021/04/04 22:49:24;;;;;;;;;;;;;;;;;;4954792;28;1545;-70
2021/04/04 22:51:56;;;;;;;;;;;;;;;;;;4954576;28;1429;-68
2021/04/04 22:54:21;;;;;;;;;;;;;;;;;;4955519;28;1886;-68
2021/04/04 22:56:46;;;;;;;;;;;;;;;;;;4954505;28;1206;-68
2021/04/04 22:59:12;;;;;;;;;;;;;;;;;;4959433;28;798;-68
